Time;durP1;ratioP1;P1;durP2;ratioP2;P2;SDS_P1;SDS_P2;PMS_P1;PMS_P2;Temp;Humidity;BMP_temperature;BMP_pressure;BME280_temperature;BME280_humidity;BME280_pressure;Samples;Min_cycle;Max_cycle;Signal;HPM_P1;HPM_P2
2023/09/21 00:02:27;;;;;;;4.88;2.10;;;18.80;93.90;;;;;;6241074;23;20020;-67
2023/09/21 00:05:13;;;;;;;6.22;2.60;;;18.80;93.90;;;;;;6239080;23;20008;-67
2023/09/21 00:07:59;;;;;;;6.65;2.17;;;18.80;94.00;;;;;;6238759;23;20449;-67
2023/09/21 00:10:46;;;;;;;2.58;1.98;;;18.80;94.10;;;;;;6237805;23;20004;-66
2023/09/21 00:13:32;;;;;;;5.47;2.40;;;18.80;94.10;;;;;;6216318;23;20013;-67
2023/09/21 00:16:18;;;;;;;3.53;2.00;;;18.80;94.10;;;;;;6239789;23;20008;-67
2023/09/21 00:19:07;;;;;;;4.38;2.40;;;18.70;94.20;;;;;;6238289;23;20008;-67
2023/09/21 00:21:57;;;;;;;4.97;2.13;;;18.70;94.20;;;;;;6238224;23;20074;-67
2023/09/21 00:24:43;;;;;;;6.20;2.00;;;18.70;94.30;;;;;;6239183;23;20004;-67
2023/09/21 00:27:29;;;;;;;4.68;2.40;;;18.60;94.30;;;;;;6238630;23;20012;-66
2023/09/21 00:30:15;;;;;;;5.32;2.10;;;18.70;94.60;;;;;;6238141;23;20015;-66
2023/09/21 00:33:02;;;;;;;4.97;2.05;;;18.60;94.40;;;;;;6237595;23;20069;-66
2023/09/21 00:35:47;;;;;;;4.40;2.05;;;18.60;94.40;;;;;;6239348;23;20024;-66
2023/09/21 00:38:33;;;;;;;8.35;2.00;;;18.60;94.50;;;;;;6225316;23;20029;-66
2023/09/21 00:41:19;;;;;;;3.35;2.08;;;18.60;94.60;;;;;;6209080;23;20245;-67
2023/09/21 00:44:07;;;;;;;9.30;2.45;;;18.60;94.60;;;;;;6209688;23;20019;-67
2023/09/21 00:46:54;;;;;;;6.13;2.45;;;18.50;94.60;;;;;;6210887;23;20009;-67
2023/09/21 00:49:41;;;;;;;4.78;2.55;;;18.50;94.70;;;;;;6211232;23;20355;-67
2023/09/21 00:52:28;;;;;;;3.60;1.85;;;18.50;94.70;;;;;;6210360;23;20004;-67
2023/09/21 00:55:22;;;;;;;4.75;2.17;;;18.50;94.80;;;;;;6210023;23;20017;-67
2023/09/21 00:58:08;;;;;;;3.80;2.10;;;18.50;94.80;;;;;;6211519;23;20319;-67
2023/09/21 01:00:56;;;;;;;2.88;2.00;;;18.50;95.00;;;;;;6209441;23;20493;-67
2023/09/21 01:03:43;;;;;;;3.13;1.77;;;18.50;94.90;;;;;;6210709;23;20048;-67
2023/09/21 01:06:30;;;;;;;3.42;2.05;;;18.40;95.00;;;;;;6213111;23;20016;-68
2023/09/21 01:09:17;;;;;;;4.20;2.20;;;18.40;95.00;;;;;;6212673;23;20017;-68
2023/09/21 01:12:05;;;;;;;8.48;2.15;;;18.40;95.10;;;;;;6211007;23;20013;-68
2023/09/21 01:15:23;;;;;;;5.20;2.05;;;18.30;95.10;;;;;;6212076;23;20198;-67
2023/09/21 01:18:09;;;;;;;3.80;2.30;;;18.40;95.10;;;;;;6091676;23;20006;-68
2023/09/21 01:21:06;;;;;;;4.07;2.00;;;18.30;95.20;;;;;;6093181;23;20078;-65
2023/09/21 01:23:55;;;;;;;4.13;2.28;;;18.30;95.30;;;;;;6090617;23;20033;-65
2023/09/21 01:26:41;;;;;;;6.53;2.30;;;18.30;95.30;;;;;;6091356;23;20449;-66
2023/09/21 01:29:29;;;;;;;4.68;2.17;;;18.30;95.40;;;;;;6091627;23;20014;-65
2023/09/21 01:32:16;;;;;;;5.30;1.92;;;18.30;95.40;;;;;;6091160;23;20006;-65
2023/09/21 01:35:02;;;;;;;5.63;2.40;;;18.20;95.40;;;;;;6092920;23;20080;-65
2023/09/21 01:37:48;;;;;;;8.70;2.28;;;18.20;95.50;;;;;;6070227;23;20018;-64
2023/09/21 01:40:35;;;;;;;4.60;2.17;;;18.20;95.50;;;;;;6070707;23;20022;-65
2023/09/21 01:43:21;;;;;;;4.47;2.45;;;18.20;95.60;;;;;;6071501;23;20642;-64
2023/09/21 01:46:08;;;;;;;3.10;2.13;;;18.20;95.70;;;;;;6091165;23;20010;-64
2023/09/21 01:48:54;;;;;;;4.05;2.17;;;18.20;95.70;;;;;;6092060;23;20015;-65
2023/09/21 01:51:41;;;;;;;2.70;2.00;;;18.10;95.80;;;;;;6091334;23;20078;-65
2023/09/21 01:54:28;;;;;;;4.18;2.47;;;18.10;95.80;;;;;;6201475;23;20009;-64
2023/09/21 01:57:15;;;;;;;2.67;1.90;;;18.10;95.90;;;;;;6212696;23;20047;-65
2023/09/21 02:00:11;;;;;;;8.60;3.03;;;18.10;96.00;;;;;;6212137;23;20012;-65
2023/09/21 02:02:57;;;;;;;3.22;1.85;;;18.10;96.00;;;;;;6188056;23;20564;-64
2023/09/21 02:05:46;;;;;;;5.20;2.22;;;18.10;96.00;;;;;;6211745;23;20036;-64
2023/09/21 02:08:33;;;;;;;3.72;2.10;;;18.10;96.00;;;;;;6189229;23;20021;-66
2023/09/21 02:11:19;;;;;;;5.78;2.28;;;18.00;96.10;;;;;;6211909;23;20019;-64
2023/09/21 02:14:05;;;;;;;4.78;2.20;;;18.00;96.10;;;;;;6211166;23;20236;-64
2023/09/21 02:16:51;;;;;;;4.35;2.17;;;18.00;96.20;;;;;;6187692;23;20362;-64
2023/09/21 02:19:37;;;;;;;4.40;2.50;;;18.00;96.20;;;;;;6210933;23;20489;-64
2023/09/21 02:22:23;;;;;;;5.40;2.67;;;18.00;96.20;;;;;;6210766;23;20016;-65
2023/09/21 02:25:10;;;;;;;3.45;2.13;;;17.90;96.30;;;;;;6210709;23;20008;-64
2023/09/21 02:27:56;;;;;;;5.47;2.10;;;17.90;96.30;;;;;;6210434;23;20037;-64
2023/09/21 02:30:47;;;;;;;4.57;2.60;;;17.90;96.40;;;;;;6210832;23;20008;-65
2023/09/21 02:33:34;;;;;;;3.95;2.47;;;17.90;96.40;;;;;;6211195;23;20009;-64
2023/09/21 02:36:20;;;;;;;6.13;2.63;;;17.80;96.40;;;;;;6211481;23;20005;-64
2023/09/21 02:39:08;;;;;;;8.65;2.88;;;17.80;96.50;;;;;;6210878;23;20013;-65
2023/09/21 02:41:54;;;;;;;4.35;2.50;;;17.80;96.60;;;;;;6211317;23;20339;-63
2023/09/21 02:44:40;;;;;;;2.35;1.92;;;17.70;96.60;;;;;;6213889;23;20017;-63
2023/09/21 02:47:29;;;;;;;4.43;2.80;;;17.70;96.70;;;;;;6212842;23;20052;-65
2023/09/21 02:50:16;;;;;;;3.17;2.28;;;17.70;96.80;;;;;;6210357;23;20024;-65
2023/09/21 02:53:06;;;;;;;4.55;2.47;;;17.70;96.80;;;;;;6211832;23;20019;-64
2023/09/21 02:55:52;;;;;;;2.90;2.08;;;17.60;96.90;;;;;;6209428;23;20163;-63
2023/09/21 02:58:40;;;;;;;3.08;1.90;;;17.60;96.90;;;;;;6210341;23;20453;-63
2023/09/21 03:01:26;;;;;;;3.97;2.40;;;17.60;97.00;;;;;;6210976;23;20012;-64
2023/09/21 03:04:12;;;;;;;3.72;2.55;;;17.60;97.00;;;;;;6209659;23;20021;-64
2023/09/21 03:06:59;;;;;;;7.38;2.78;;;17.60;97.10;;;;;;6210100;23;20047;-64
2023/09/21 03:09:45;;;;;;;4.13;2.30;;;17.50;97.10;;;;;;6211321;23;20342;-63
2023/09/21 03:12:32;;;;;;;3.25;2.28;;;17.50;97.20;;;;;;6210162;23;20009;-63
2023/09/21 03:15:19;;;;;;;4.00;2.00;;;17.50;97.20;;;;;;6211935;23;20013;-63
2023/09/21 03:18:09;;;;;;;3.20;1.95;;;17.50;97.30;;;;;;6199558;23;20009;-65
2023/09/21 03:20:56;;;;;;;3.33;2.28;;;17.50;97.30;;;;;;6210418;23;20023;-64
2023/09/21 03:23:44;;;;;;;4.15;2.20;;;17.50;97.30;;;;;;6210831;23;20111;-64
2023/09/21 03:26:30;;;;;;;4.40;2.63;;;17.50;97.40;;;;;;6210890;23;20016;-63
2023/09/21 03:29:16;;;;;;;4.28;2.45;;;17.50;97.40;;;;;;6210404;23;20008;-67
2023/09/21 03:32:03;;;;;;;5.47;2.58;;;17.50;97.50;;;;;;6210127;23;20009;-67
2023/09/21 03:34:49;;;;;;;3.70;2.42;;;17.50;97.50;;;;;;6211696;23;20008;-67
2023/09/21 03:37:35;;;;;;;3.92;2.30;;;17.50;97.50;;;;;;6210897;23;20005;-67
2023/09/21 03:40:21;;;;;;;4.63;2.20;;;17.50;97.50;;;;;;6240098;23;20486;-68
2023/09/21 03:43:10;;;;;;;4.97;2.60;;;17.40;97.50;;;;;;6241248;23;20477;-68
2023/09/21 03:45:56;;;;;;;4.80;2.60;;;17.40;97.60;;;;;;6242115;22;20015;-67
2023/09/21 03:48:43;;;;;;;7.22;2.80;;;17.40;97.80;;;;;;6239951;23;20016;-68
2023/09/21 03:51:29;;;;;;;3.30;2.55;;;17.40;97.60;;;;;;6241263;23;20004;-68
2023/09/21 03:54:16;;;;;;;4.25;2.30;;;17.40;97.70;;;;;;6241263;23;20043;-67
2023/09/21 03:57:02;;;;;;;3.85;2.42;;;17.40;97.70;;;;;;6241222;22;20035;-66
2023/09/21 03:59:48;;;;;;;3.90;2.40;;;17.40;97.70;;;;;;6241430;23;20111;-67
2023/09/21 04:02:34;;;;;;;3.97;2.70;;;17.40;97.70;;;;;;6239798;23;20480;-65
2023/09/21 04:05:23;;;;;;;3.78;2.63;;;17.40;97.80;;;;;;6241266;23;20000;-66
2023/09/21 04:08:09;;;;;;;4.85;2.22;;;17.40;97.90;;;;;;6241558;22;20066;-67
2023/09/21 04:11:01;;;;;;;4.75;2.72;;;17.30;97.90;;;;;;6239679;23;20096;-67
2023/09/21 04:13:47;;;;;;;4.22;2.80;;;17.30;97.90;;;;;;6240919;23;20023;-68
2023/09/21 04:16:34;;;;;;;3.20;2.20;;;17.30;97.80;;;;;;6241069;23;20078;-69
2023/09/21 04:19:20;;;;;;;4.47;2.40;;;17.30;97.90;;;;;;6242408;23;20012;-73
2023/09/21 04:22:06;;;;;;;4.50;2.85;;;17.30;97.90;;;;;;6241326;23;20058;-70
2023/09/21 04:24:52;;;;;;;3.90;2.40;;;17.30;97.90;;;;;;6241066;23;20059;-71
2023/09/21 04:27:39;;;;;;;3.95;2.53;;;17.30;97.90;;;;;;6239977;23;20091;-72
2023/09/21 04:30:25;;;;;;;4.55;2.70;;;17.30;97.90;;;;;;6251704;23;20065;-74
2023/09/21 04:33:11;;;;;;;4.90;2.80;;;17.30;97.90;;;;;;6258113;23;20012;-73
2023/09/21 04:35:57;;;;;;;5.00;3.00;;;17.30;97.90;;;;;;6256184;23;20066;-72
2023/09/21 04:38:47;;;;;;;4.25;2.30;;;17.20;97.90;;;;;;6234709;23;20082;-74
2023/09/21 04:41:33;;;;;;;4.03;2.63;;;17.20;97.90;;;;;;6251678;23;20087;-73
2023/09/21 04:44:19;;;;;;;4.63;2.53;;;17.20;97.90;;;;;;6252447;23;20008;-74
2023/09/21 04:47:05;;;;;;;4.20;3.17;;;17.20;97.80;;;;;;6251515;23;20014;-73
2023/09/21 04:49:53;;;;;;;4.03;2.47;;;17.20;97.90;;;;;;6250706;23;20009;-73
2023/09/21 04:52:40;;;;;;;3.97;2.35;;;17.20;98.00;;;;;;6250338;23;20062;-72
2023/09/21 04:55:26;;;;;;;4.38;2.75;;;17.20;98.00;;;;;;6227306;22;20019;-73
2023/09/21 04:58:12;;;;;;;2.72;2.25;;;17.10;98.00;;;;;;6243603;23;20019;-72
2023/09/21 05:00:57;;;;;;;4.53;2.50;;;17.10;98.10;;;;;;6243266;23;20008;-72
2023/09/21 05:03:43;;;;;;;4.53;2.60;;;17.10;98.10;;;;;;6242718;23;20024;-74
2023/09/21 05:06:30;;;;;;;6.10;2.42;;;17.10;98.20;;;;;;6241701;23;20004;-73
2023/09/21 05:09:16;;;;;;;3.95;2.83;;;17.10;98.20;;;;;;6239818;23;20012;-74
2023/09/21 05:12:03;;;;;;;3.47;2.28;;;17.10;98.20;;;;;;6240877;22;20012;-73
2023/09/21 05:14:50;;;;;;;7.80;2.92;;;17.10;98.20;;;;;;6239345;23;20043;-73
2023/09/21 05:17:36;;;;;;;6.32;3.10;;;17.00;98.30;;;;;;6239805;23;20012;-72
2023/09/21 05:20:22;;;;;;;6.65;2.85;;;17.00;98.30;;;;;;6243745;23;20015;-71
2023/09/21 05:23:08;;;;;;;7.22;3.17;;;17.00;98.40;;;;;;6220116;23;20023;-72
2023/09/21 05:25:56;;;;;;;6.90;3.13;;;17.00;98.40;;;;;;6243260;23;20015;-72
2023/09/21 05:28:44;;;;;;;4.20;2.50;;;17.00;98.50;;;;;;6241416;23;20019;-72
2023/09/21 05:31:31;;;;;;;5.78;2.50;;;17.00;98.50;;;;;;6241152;23;20008;-72
2023/09/21 05:34:18;;;;;;;4.35;2.63;;;17.00;98.50;;;;;;6241566;23;20039;-72
2023/09/21 05:37:04;;;;;;;7.78;2.92;;;17.00;98.60;;;;;;6242607;23;20015;-72
2023/09/21 05:39:49;;;;;;;5.13;2.45;;;17.00;98.50;;;;;;6219500;23;20054;-73
2023/09/21 05:42:35;;;;;;;5.53;2.53;;;17.10;98.60;;;;;;6211156;23;20024;-73
2023/09/21 05:45:22;;;;;;;6.60;3.45;;;17.00;98.50;;;;;;6210852;23;20008;-73
2023/09/21 05:48:14;;;;;;;5.95;2.97;;;17.10;98.60;;;;;;6212963;23;20004;-73
2023/09/21 05:51:01;;;;;;;5.93;2.70;;;17.10;98.60;;;;;;6213112;23;20430;-74
2023/09/21 05:53:48;;;;;;;4.55;3.00;;;17.10;98.70;;;;;;6211735;23;20008;-72
2023/09/21 05:56:36;;;;;;;4.43;3.08;;;17.10;98.70;;;;;;6210801;23;20036;-72
2023/09/21 05:59:23;;;;;;;4.25;2.50;;;17.10;98.80;;;;;;6212357;23;20020;-73
2023/09/21 06:02:13;;;;;;;5.53;3.30;;;17.10;98.90;;;;;;6210798;23;20028;-73
2023/09/21 06:04:59;;;;;;;23.15;3.72;;;17.20;98.90;;;;;;6211006;23;20019;-74
2023/09/21 06:07:45;;;;;;;5.90;3.13;;;17.20;98.80;;;;;;6225802;23;20019;-76
2023/09/21 06:10:32;;;;;;;5.10;3.05;;;17.20;98.80;;;;;;6222251;23;20015;-72
2023/09/21 06:13:18;;;;;;;8.20;3.08;;;17.20;98.80;;;;;;6212328;23;20019;-72
2023/09/21 06:16:04;;;;;;;8.65;3.30;;;17.30;98.90;;;;;;6211069;23;20012;-72
2023/09/21 06:18:50;;;;;;;6.97;3.58;;;17.20;98.80;;;;;;6209984;23;20083;-72
2023/09/21 06:21:36;;;;;;;5.10;3.00;;;17.30;98.90;;;;;;6211151;23;20426;-71
2023/09/21 06:24:24;;;;;;;7.10;3.33;;;17.30;98.90;;;;;;6213302;23;20005;-72
2023/09/21 06:27:11;;;;;;;8.82;3.67;;;17.30;98.90;;;;;;6210768;23;20016;-72
2023/09/21 06:29:58;;;;;;;4.45;3.10;;;17.30;98.90;;;;;;6211504;23;20012;-71
2023/09/21 06:32:44;;;;;;;4.32;3.05;;;17.30;98.90;;;;;;6209008;23;20516;-72
2023/09/21 06:35:30;;;;;;;7.78;2.90;;;17.30;98.90;;;;;;6211155;23;20008;-72
2023/09/21 06:38:16;;;;;;;7.40;3.25;;;17.30;98.90;;;;;;6210152;23;20024;-75
2023/09/21 06:41:02;;;;;;;6.60;2.85;;;17.40;99.00;;;;;;6211316;23;20013;-75
2023/09/21 06:43:48;;;;;;;4.95;3.28;;;17.40;99.00;;;;;;6212365;23;20466;-75
2023/09/21 06:46:34;;;;;;;7.72;2.90;;;17.50;99.10;;;;;;6211625;23;20465;-72
2023/09/21 06:49:21;;;;;;;6.65;3.40;;;17.50;99.10;;;;;;6210308;23;20018;-72
2023/09/21 06:52:07;;;;;;;5.80;3.17;;;17.50;99.10;;;;;;6212098;23;20009;-72
2023/09/21 06:54:54;;;;;;;6.10;3.35;;;17.60;99.10;;;;;;6209296;23;20099;-70
2023/09/21 06:57:40;;;;;;;6.03;3.13;;;17.70;99.10;;;;;;6212361;23;20019;-70
2023/09/21 07:00:26;;;;;;;7.93;3.25;;;17.70;99.20;;;;;;6209601;23;20057;-69
2023/09/21 07:03:12;;;;;;;6.25;2.95;;;17.80;99.20;;;;;;6210011;23;20016;-70
2023/09/21 07:05:58;;;;;;;5.75;2.38;;;17.90;99.20;;;;;;6210893;23;20458;-69
2023/09/21 07:08:50;;;;;;;3.97;2.95;;;18.00;99.20;;;;;;6210433;23;20384;-69
2023/09/21 07:11:37;;;;;;;5.55;3.10;;;18.20;99.10;;;;;;6210684;23;20015;-71
2023/09/21 07:14:23;;;;;;;13.70;2.85;;;18.30;99.10;;;;;;6210769;23;20465;-71
2023/09/21 07:17:09;;;;;;;6.80;3.13;;;18.40;98.90;;;;;;6211525;23;20009;-70
2023/09/21 07:19:55;;;;;;;4.00;2.70;;;18.60;98.80;;;;;;6209851;23;20012;-70
2023/09/21 07:22:41;;;;;;;4.93;2.70;;;18.70;98.70;;;;;;6211213;23;20079;-70
2023/09/21 07:25:30;;;;;;;6.72;3.10;;;18.80;98.60;;;;;;6210739;23;20009;-72
2023/09/21 07:28:16;;;;;;;4.15;2.20;;;19.00;98.60;;;;;;6212256;23;20013;-71
2023/09/21 07:31:02;;;;;;;7.03;2.42;;;19.10;98.40;;;;;;6210475;23;20151;-71
2023/09/21 07:33:52;;;;;;;7.63;2.70;;;19.20;98.30;;;;;;6213584;23;20069;-71
2023/09/21 07:36:38;;;;;;;8.68;2.70;;;19.30;98.20;;;;;;6210568;23;20015;-72
2023/09/21 07:39:24;;;;;;;3.15;2.10;;;19.40;98.10;;;;;;6210408;23;20032;-72
2023/09/21 07:42:10;;;;;;;4.95;2.75;;;19.50;98.00;;;;;;6210815;23;20013;-71
2023/09/21 07:44:56;;;;;;;4.95;2.50;;;19.60;97.90;;;;;;6210470;23;20074;-71
2023/09/21 07:47:45;;;;;;;5.93;2.70;;;19.60;97.70;;;;;;6210803;23;20075;-72
2023/09/21 07:50:35;;;;;;;4.50;3.03;;;19.70;97.60;;;;;;6211761;23;20012;-73
2023/09/21 07:53:21;;;;;;;3.58;2.17;;;19.80;97.70;;;;;;6211599;23;20020;-71
2023/09/21 07:56:12;;;;;;;3.97;2.50;;;19.90;97.60;;;;;;6211970;23;20020;-72
2023/09/21 07:58:58;;;;;;;4.60;2.10;;;20.00;97.40;;;;;;6210368;23;20016;-71
2023/09/21 08:01:44;;;;;;;4.22;2.55;;;20.00;97.40;;;;;;6211192;23;20070;-72
2023/09/21 08:04:30;;;;;;;3.22;2.08;;;20.10;97.30;;;;;;6209647;23;20015;-61
2023/09/21 08:07:23;;;;;;;3.92;2.30;;;20.20;97.20;;;;;;6209383;23;20005;-60
2023/09/21 08:10:10;;;;;;;3.63;2.42;;;20.30;97.10;;;;;;6211122;23;20012;-60
2023/09/21 08:12:56;;;;;;;3.88;2.40;;;20.30;97.10;;;;;;6210904;23;20008;-60
2023/09/21 08:15:43;;;;;;;3.13;2.03;;;20.40;97.00;;;;;;6211921;23;20095;-61
2023/09/21 08:18:29;;;;;;;5.40;2.55;;;20.50;96.90;;;;;;6208214;23;20016;-61
2023/09/21 08:21:16;;;;;;;6.63;2.33;;;20.60;96.70;;;;;;6208813;23;20022;-61
2023/09/21 08:24:03;;;;;;;6.97;2.97;;;20.70;96.60;;;;;;6209283;23;20024;-60
2023/09/21 08:26:48;;;;;;;5.25;2.38;;;20.80;96.50;;;;;;6210549;23;20016;-61
2023/09/21 08:29:34;;;;;;;3.92;2.05;;;20.80;96.40;;;;;;6209846;23;20005;-60
2023/09/21 08:32:20;;;;;;;4.47;2.38;;;20.90;96.40;;;;;;6211603;23;20020;-61
2023/09/21 08:35:07;;;;;;;3.97;2.22;;;21.00;96.30;;;;;;6211810;23;20000;-60
2023/09/21 08:37:53;;;;;;;3.17;1.70;;;21.10;96.20;;;;;;6214625;23;20015;-61
2023/09/21 08:40:43;;;;;;;5.05;3.03;;;21.10;96.10;;;;;;6240032;23;20016;-62
2023/09/21 08:43:31;;;;;;;3.80;1.88;;;21.20;96.10;;;;;;6239664;23;20070;-61
2023/09/21 08:46:17;;;;;;;5.78;2.28;;;21.30;96.00;;;;;;6238947;23;20012;-69
2023/09/21 08:49:03;;;;;;;4.68;2.08;;;21.30;96.00;;;;;;6239157;23;20453;-70
2023/09/21 08:51:52;;;;;;;3.40;2.03;;;21.40;95.80;;;;;;6239655;23;20050;-71
2023/09/21 08:54:42;;;;;;;5.30;2.45;;;21.50;95.80;;;;;;6239410;23;20082;-70
2023/09/21 08:57:28;;;;;;;13.15;3.10;;;21.60;95.70;;;;;;6241534;23;20004;-70
2023/09/21 09:00:15;;;;;;;3.20;1.58;;;21.60;95.70;;;;;;6218988;23;20012;-60
2023/09/21 09:03:03;;;;;;;6.43;2.13;;;21.80;95.50;;;;;;6218700;23;20024;-61
2023/09/21 09:05:49;;;;;;;5.65;2.00;;;21.80;95.40;;;;;;6235889;23;20066;-61
2023/09/21 09:08:35;;;;;;;4.80;1.90;;;21.90;95.30;;;;;;6237006;22;20070;-63
2023/09/21 09:11:38;;;;;;;4.88;2.47;;;22.00;95.20;;;;;;6238947;23;20031;-62
2023/09/21 09:14:24;;;;;;;3.47;2.35;;;22.00;95.10;;;;;;6239147;23;20035;-61
2023/09/21 09:17:13;;;;;;;13.70;2.20;;;22.10;95.00;;;;;;6240747;23;20409;-61
2023/09/21 09:20:03;;;;;;;2.88;1.60;;;22.20;94.90;;;;;;6238826;23;20091;-61
2023/09/21 09:22:51;;;;;;;4.82;2.65;;;22.30;94.80;;;;;;6240171;22;20016;-61
2023/09/21 09:25:37;;;;;;;3.22;1.80;;;22.30;94.80;;;;;;6241268;23;20046;-61
2023/09/21 09:28:23;;;;;;;3.17;1.92;;;22.40;94.70;;;;;;6240126;23;20016;-60
2023/09/21 09:31:11;;;;;;;7.13;1.75;;;22.50;94.70;;;;;;6241169;23;20243;-61
2023/09/21 09:33:59;;;;;;;2.85;1.95;;;22.60;94.50;;;;;;6241490;23;20008;-61
2023/09/21 09:36:49;;;;;;;5.70;2.05;;;22.70;94.50;;;;;;6240281;23;20012;-61
2023/09/21 09:39:35;;;;;;;4.03;2.03;;;22.80;94.40;;;;;;6240181;23;20023;-61
2023/09/21 09:42:22;;;;;;;5.90;2.10;;;22.80;94.10;;;;;;6241636;23;20024;-61
2023/09/21 09:45:24;;;;;;;2.35;1.65;;;22.90;94.00;;;;;;6242457;23;20014;-61
2023/09/21 09:48:19;;;;;;;11.68;2.45;;;23.00;93.80;;;;;;6241096;23;20328;-61
2023/09/21 09:51:09;;;;;;;4.45;1.85;;;23.10;93.70;;;;;;6242474;23;20008;-61
2023/09/21 09:53:56;;;;;;;5.13;1.88;;;23.20;93.50;;;;;;6240034;23;20004;-62
2023/09/21 09:56:43;;;;;;;5.45;2.88;;;23.30;93.40;;;;;;6240421;22;20012;-62
2023/09/21 09:59:30;;;;;;;2.25;1.60;;;23.40;93.10;;;;;;6239846;23;20504;-61
2023/09/21 10:02:17;;;;;;;4.35;1.70;;;23.40;93.00;;;;;;6241073;23;20046;-61
2023/09/21 10:05:04;;;;;;;3.35;1.95;;;23.50;92.90;;;;;;6241480;23;20008;-61
2023/09/21 10:07:51;;;;;;;2.40;1.58;;;23.70;92.80;;;;;;6242013;23;20008;-62
2023/09/21 10:10:44;;;;;;;6.00;1.70;;;23.70;92.60;;;;;;6239981;23;20016;-61
2023/09/21 10:13:30;;;;;;;2.38;1.60;;;23.80;92.30;;;;;;6239657;23;20338;-62
2023/09/21 10:16:17;;;;;;;3.05;1.92;;;23.90;92.30;;;;;;6241868;23;20012;-61
2023/09/21 10:19:03;;;;;;;2.90;1.73;;;24.00;92.10;;;;;;6240161;23;20008;-60
2023/09/21 10:21:52;;;;;;;2.13;1.45;;;24.10;92.00;;;;;;6242335;23;20069;-61
2023/09/21 10:24:38;;;;;;;3.55;1.52;;;24.20;91.70;;;;;;6241050;23;20028;-62
2023/09/21 10:27:27;;;;;;;2.97;1.73;;;24.20;91.50;;;;;;6241473;22;20008;-62
2023/09/21 10:30:18;;;;;;;6.65;1.58;;;24.30;91.30;;;;;;6239402;23;20337;-61
2023/09/21 10:33:04;;;;;;;2.95;1.63;;;24.40;91.20;;;;;;6240391;23;20008;-61
2023/09/21 10:35:50;;;;;;;1.50;1.38;;;24.40;91.10;;;;;;6239434;23;20374;-62
2023/09/21 10:38:36;;;;;;;2.75;1.73;;;24.50;90.80;;;;;;6239198;23;20358;-61
2023/09/21 10:41:30;;;;;;;3.70;1.27;;;24.50;90.60;;;;;;6218522;23;20430;-62
2023/09/21 10:44:53;;;;;;;4.65;2.00;;;24.60;90.40;;;;;;6239753;23;20458;-62
2023/09/21 10:47:43;;;;;;;3.22;2.05;;;24.70;90.40;;;;;;6241788;22;20087;-62
2023/09/21 10:50:30;;;;;;;2.70;1.45;;;24.80;90.10;;;;;;6241405;23;20015;-61
2023/09/21 10:53:17;;;;;;;1.60;1.08;;;24.80;89.60;;;;;;6241392;23;20087;-62
2023/09/21 10:56:05;;;;;;;2.47;1.70;;;24.90;90.10;;;;;;6239358;22;20171;-60
2023/09/21 10:58:51;;;;;;;3.15;1.83;;;25.00;89.40;;;;;;6241109;23;20012;-60
2023/09/21 11:01:39;;;;;;;2.15;1.35;;;25.10;89.20;;;;;;6242389;23;20020;-62
2023/09/21 11:04:25;;;;;;;4.47;1.83;;;25.10;89.00;;;;;;6239842;23;20024;-61
2023/09/21 11:07:16;;;;;;;4.57;1.95;;;25.20;88.90;;;;;;6239404;23;20008;-61
2023/09/21 11:10:05;;;;;;;2.55;1.40;;;25.20;88.70;;;;;;6239912;23;20504;-62
2023/09/21 11:12:51;;;;;;;2.30;1.10;;;25.30;88.50;;;;;;6239869;23;20011;-61
2023/09/21 11:15:39;;;;;;;4.35;1.70;;;25.30;88.20;;;;;;6241895;23;20117;-61
2023/09/21 11:18:28;;;;;;;2.78;1.50;;;25.40;87.90;;;;;;6241139;23;20011;-61
2023/09/21 11:21:17;;;;;;;2.78;1.85;;;25.50;87.70;;;;;;6229936;23;20024;-62
2023/09/21 11:24:05;;;;;;;4.82;1.67;;;25.60;87.80;;;;;;6229107;23;20023;-61
2023/09/21 11:26:54;;;;;;;3.95;1.70;;;25.60;87.50;;;;;;6238067;23;20354;-62
2023/09/21 11:29:43;;;;;;;2.78;1.40;;;25.60;86.70;;;;;;6240746;23;20012;-60
2023/09/21 11:32:29;;;;;;;2.00;1.48;;;25.70;86.30;;;;;;6239996;23;20392;-61
2023/09/21 11:35:17;;;;;;;2.65;1.45;;;25.70;85.90;;;;;;6230157;22;20020;-62
2023/09/21 11:38:03;;;;;;;1.55;1.10;;;25.80;85.80;;;;;;6229722;23;20016;-61
2023/09/21 11:40:50;;;;;;;3.72;1.58;;;25.80;85.60;;;;;;6241717;22;20050;-61
2023/09/21 11:43:36;;;;;;;2.47;1.55;;;25.90;84.80;;;;;;6241616;22;20016;-61
2023/09/21 11:46:22;;;;;;;2.13;1.35;;;25.90;85.00;;;;;;6241790;22;20035;-62
2023/09/21 11:49:10;;;;;;;3.47;2.13;;;26.00;84.80;;;;;;6241060;23;20008;-62
2023/09/21 11:51:58;;;;;;;4.18;1.55;;;26.10;85.30;;;;;;6240034;23;20023;-61
2023/09/21 11:54:44;;;;;;;2.95;1.35;;;26.10;84.50;;;;;;6239882;23;20083;-61
2023/09/21 11:57:30;;;;;;;3.58;1.42;;;26.20;84.00;;;;;;6241850;23;20008;-61
2023/09/21 12:00:38;;;;;;;3.40;1.55;;;26.20;83.90;;;;;;6238651;23;20015;-61
2023/09/21 12:03:24;;;;;;;3.03;1.50;;;26.20;83.00;;;;;;6216747;23;20052;-62
2023/09/21 12:06:10;;;;;;;2.63;1.40;;;26.30;82.80;;;;;;6239886;23;20008;-62
2023/09/21 12:08:57;;;;;;;4.00;1.65;;;26.30;82.50;;;;;;6239283;23;20008;-61
2023/09/21 12:11:45;;;;;;;3.58;1.60;;;26.40;82.00;;;;;;6240412;23;20000;-61
2023/09/21 12:14:31;;;;;;;1.67;1.17;;;26.40;81.70;;;;;;6239695;23;20422;-62
2023/09/21 12:17:19;;;;;;;1.95;1.30;;;26.50;81.40;;;;;;6239687;23;20012;-63
2023/09/21 12:20:17;;;;;;;2.83;1.20;;;26.60;81.20;;;;;;6239971;23;20008;-62
2023/09/21 12:23:07;;;;;;;1.65;1.33;;;26.60;80.50;;;;;;6239072;23;20446;-62
2023/09/21 12:25:53;;;;;;;3.88;1.85;;;26.70;80.00;;;;;;6240130;23;20027;-61
2023/09/21 12:28:39;;;;;;;3.10;1.20;;;26.80;80.10;;;;;;6240156;23;20012;-62
2023/09/21 12:31:27;;;;;;;4.32;1.35;;;26.80;79.80;;;;;;6241534;22;20386;-60
2023/09/21 12:34:14;;;;;;;2.40;1.38;;;26.90;79.70;;;;;;6240335;23;20019;-60
2023/09/21 12:37:01;;;;;;;3.25;1.33;;;26.90;79.30;;;;;;6239601;23;20050;-61
2023/09/21 12:39:47;;;;;;;1.70;1.30;;;27.00;78.40;;;;;;6241400;22;20078;-61
2023/09/21 12:42:33;;;;;;;1.75;1.13;;;27.00;78.10;;;;;;6239818;23;20020;-60
2023/09/21 12:45:20;;;;;;;3.75;1.50;;;27.10;78.20;;;;;;6241980;22;20078;-62
2023/09/21 12:48:08;;;;;;;2.85;1.70;;;27.10;77.80;;;;;;6239095;23;20015;-61
2023/09/21 12:50:54;;;;;;;5.75;1.45;;;27.20;77.50;;;;;;6238687;23;20100;-60
2023/09/21 12:53:40;;;;;;;5.60;1.42;;;27.30;76.70;;;;;;6237903;23;20012;-60
2023/09/21 12:56:27;;;;;;;12.32;2.28;;;27.30;76.40;;;;;;6239524;22;20008;-60
2023/09/21 12:59:13;;;;;;;2.05;1.30;;;27.40;76.20;;;;;;6240538;23;20346;-60
2023/09/21 13:01:59;;;;;;;2.85;1.33;;;27.40;75.30;;;;;;6241655;23;20465;-61
2023/09/21 13:04:45;;;;;;;1.67;1.17;;;27.50;75.50;;;;;;6244433;23;20464;-60
2023/09/21 13:07:31;;;;;;;4.55;1.40;;;27.60;75.50;;;;;;6240251;23;20429;-60
2023/09/21 13:10:18;;;;;;;3.90;1.67;;;27.60;75.10;;;;;;6241519;23;20529;-62
2023/09/21 13:13:05;;;;;;;4.32;1.40;;;27.60;74.20;;;;;;6241562;23;20012;-60
2023/09/21 13:15:51;;;;;;;5.72;1.55;;;27.70;73.50;;;;;;6241966;23;20042;-60
2023/09/21 13:18:40;;;;;;;4.47;1.48;;;27.80;73.10;;;;;;6219015;23;20081;-62
2023/09/21 13:21:27;;;;;;;5.97;1.80;;;27.90;73.00;;;;;;6241732;23;20515;-61
2023/09/21 13:24:12;;;;;;;2.65;1.58;;;27.90;72.70;;;;;;6241826;23;20015;-60
2023/09/21 13:26:59;;;;;;;2.28;1.60;;;28.00;71.70;;;;;;6221185;23;20381;-61
2023/09/21 13:29:45;;;;;;;4.18;1.67;;;28.10;71.30;;;;;;6241131;23;20012;-61
2023/09/21 13:32:31;;;;;;;2.55;1.40;;;28.10;71.10;;;;;;6241738;23;20018;-74
2023/09/21 13:35:18;;;;;;;3.10;1.35;;;28.20;71.00;;;;;;6243923;22;20012;-74
2023/09/21 13:38:04;;;;;;;1.30;1.00;;;28.20;71.10;;;;;;6218557;22;20342;-73
2023/09/21 13:40:50;;;;;;;2.65;1.02;;;28.30;70.60;;;;;;6240352;23;20012;-74
2023/09/21 13:43:37;;;;;;;2.47;1.70;;;28.30;70.50;;;;;;6243494;22;20016;-73
2023/09/21 13:46:22;;;;;;;3.40;1.73;;;28.40;70.10;;;;;;6240228;23;20009;-73
2023/09/21 13:49:08;;;;;;;2.25;1.35;;;28.40;70.00;;;;;;6243887;22;20031;-74
2023/09/21 13:51:55;;;;;;;2.40;1.40;;;28.50;69.70;;;;;;6242535;23;20069;-75
2023/09/21 13:54:41;;;;;;;2.65;1.70;;;28.60;69.40;;;;;;6242110;23;20008;-73
2023/09/21 13:57:29;;;;;;;2.53;1.40;;;28.60;69.50;;;;;;6241979;23;20000;-74
2023/09/21 14:00:15;;;;;;;3.85;1.65;;;28.70;69.40;;;;;;6241536;23;20342;-75
2023/09/21 14:03:01;;;;;;;2.28;1.30;;;28.80;69.20;;;;;;6242235;23;20036;-75
2023/09/21 14:05:49;;;;;;;2.03;1.30;;;28.80;68.80;;;;;;6242172;23;20008;-74
2023/09/21 14:08:35;;;;;;;2.30;1.55;;;28.90;68.30;;;;;;6240816;23;20400;-75
2023/09/21 14:11:21;;;;;;;2.95;1.23;;;28.90;68.10;;;;;;6240218;23;20111;-74
2023/09/21 14:14:07;;;;;;;3.45;1.73;;;29.00;67.80;;;;;;6240814;23;20039;-75
2023/09/21 14:16:53;;;;;;;1.85;1.13;;;29.00;67.80;;;;;;6241865;23;20066;-74
2023/09/21 14:19:39;;;;;;;1.83;1.25;;;29.00;67.00;;;;;;6219118;23;20349;-72
2023/09/21 14:22:25;;;;;;;2.90;1.67;;;29.10;66.90;;;;;;6243086;23;20086;-72
2023/09/21 14:25:11;;;;;;;4.05;1.73;;;29.10;66.80;;;;;;6241653;23;20341;-71
2023/09/21 14:27:57;;;;;;;2.30;1.60;;;29.20;67.00;;;;;;6240508;23;20342;-71
2023/09/21 14:30:43;;;;;;;3.00;1.40;;;29.20;67.10;;;;;;6242941;22;20008;-71